sensor_id;sensor_type;location;lat;lon;timestamp;P1;durP1;ratioP1;P2;durP2;ratioP2
30617;SDS011;17384;51.214;9.202;2023-02-28T00:00:05;5.03;;;3.10;;
30617;SDS011;17384;51.214;9.202;2023-02-28T00:02:41;4.10;;;2.30;;
30617;SDS011;17384;51.214;9.202;2023-02-28T00:05:09;4.65;;;2.30;;
30617;SDS011;17384;51.214;9.202;2023-02-28T00:07:36;4.93;;;2.42;;
30617;SDS011;17384;51.214;9.202;2023-02-28T00:10:02;6.28;;;2.40;;
30617;SDS011;17384;51.214;9.202;2023-02-28T00:12:32;6.32;;;2.70;;
30617;SDS011;17384;51.214;9.202;2023-02-28T00:14:59;5.50;;;2.20;;
30617;SDS011;17384;51.214;9.202;2023-02-28T00:17:25;4.18;;;2.22;;
30617;SDS011;17384;51.214;9.202;2023-02-28T00:19:50;3.63;;;2.60;;
30617;SDS011;17384;51.214;9.202;2023-02-28T00:22:17;7.93;;;3.13;;
30617;SDS011;17384;51.214;9.202;2023-02-28T00:24:44;3.35;;;2.50;;
30617;SDS011;17384;51.214;9.202;2023-02-28T00:27:10;5.93;;;3.05;;
30617;SDS011;17384;51.214;9.202;2023-02-28T00:29:36;3.20;;;2.55;;
30617;SDS011;17384;51.214;9.202;2023-02-28T00:32:02;14.10;;;4.97;;
30617;SDS011;17384;51.214;9.202;2023-02-28T00:34:27;5.95;;;2.60;;
30617;SDS011;17384;51.214;9.202;2023-02-28T00:36:53;2.72;;;2.30;;
30617;SDS011;17384;51.214;9.202;2023-02-28T00:39:19;5.80;;;2.63;;
30617;SDS011;17384;51.214;9.202;2023-02-28T00:41:44;5.00;;;2.20;;
30617;SDS011;17384;51.214;9.202;2023-02-28T00:44:10;4.90;;;3.25;;
30617;SDS011;17384;51.214;9.202;2023-02-28T00:46:35;3.63;;;2.58;;
30617;SDS011;17384;51.214;9.202;2023-02-28T00:49:01;3.65;;;2.53;;
30617;SDS011;17384;51.214;9.202;2023-02-28T00:51:26;7.88;;;2.80;;
30617;SDS011;17384;51.214;9.202;2023-02-28T00:53:52;3.22;;;2.35;;
30617;SDS011;17384;51.214;9.202;2023-02-28T00:56:17;5.00;;;3.45;;
30617;SDS011;17384;51.214;9.202;2023-02-28T00:58:43;6.15;;;2.65;;
30617;SDS011;17384;51.214;9.202;2023-02-28T01:01:09;4.15;;;2.60;;
30617;SDS011;17384;51.214;9.202;2023-02-28T01:03:34;4.80;;;2.80;;
30617;SDS011;17384;51.214;9.202;2023-02-28T01:06:00;4.15;;;2.45;;
30617;SDS011;17384;51.214;9.202;2023-02-28T01:08:25;4.40;;;2.85;;
30617;SDS011;17384;51.214;9.202;2023-02-28T01:10:52;4.38;;;2.78;;
30617;SDS011;17384;51.214;9.202;2023-02-28T01:13:18;4.00;;;2.60;;
30617;SDS011;17384;51.214;9.202;2023-02-28T01:15:46;3.42;;;2.70;;
30617;SDS011;17384;51.214;9.202;2023-02-28T01:18:20;3.33;;;2.65;;
30617;SDS011;17384;51.214;9.202;2023-02-28T01:20:46;2.83;;;2.30;;
30617;SDS011;17384;51.214;9.202;2023-02-28T01:23:11;7.35;;;3.25;;
30617;SDS011;17384;51.214;9.202;2023-02-28T01:25:37;3.80;;;2.40;;
30617;SDS011;17384;51.214;9.202;2023-02-28T01:28:03;3.63;;;2.58;;
30617;SDS011;17384;51.214;9.202;2023-02-28T01:30:30;11.18;;;2.35;;
30617;SDS011;17384;51.214;9.202;2023-02-28T01:32:55;4.25;;;2.50;;
30617;SDS011;17384;51.214;9.202;2023-02-28T01:35:21;3.15;;;2.67;;
30617;SDS011;17384;51.214;9.202;2023-02-28T01:37:46;5.97;;;3.00;;
30617;SDS011;17384;51.214;9.202;2023-02-28T01:40:12;3.13;;;2.28;;
30617;SDS011;17384;51.214;9.202;2023-02-28T01:42:38;2.85;;;2.25;;
30617;SDS011;17384;51.214;9.202;2023-02-28T01:47:48;3.47;;;2.33;;
30617;SDS011;17384;51.214;9.202;2023-02-28T01:50:21;4.22;;;3.05;;
30617;SDS011;17384;51.214;9.202;2023-02-28T01:52:51;2.83;;;2.50;;
30617;SDS011;17384;51.214;9.202;2023-02-28T01:55:21;3.60;;;2.58;;
30617;SDS011;17384;51.214;9.202;2023-02-28T01:57:50;3.40;;;2.63;;
30617;SDS011;17384;51.214;9.202;2023-02-28T02:00:20;3.42;;;2.45;;
30617;SDS011;17384;51.214;9.202;2023-02-28T02:02:49;3.10;;;2.38;;
30617;SDS011;17384;51.214;9.202;2023-02-28T02:05:22;4.75;;;2.47;;
30617;SDS011;17384;51.214;9.202;2023-02-28T02:07:51;6.25;;;2.97;;
30617;SDS011;17384;51.214;9.202;2023-02-28T02:10:21;3.67;;;2.88;;
30617;SDS011;17384;51.214;9.202;2023-02-28T02:15:43;5.03;;;3.20;;
30617;SDS011;17384;51.214;9.202;2023-02-28T02:18:23;4.85;;;2.90;;
30617;SDS011;17384;51.214;9.202;2023-02-28T02:32:26;3.50;;;2.50;;
30617;SDS011;17384;51.214;9.202;2023-02-28T02:40:22;9.60;;;5.00;;
30617;SDS011;17384;51.214;9.202;2023-02-28T02:43:04;4.97;;;3.20;;
30617;SDS011;17384;51.214;9.202;2023-02-28T02:45:38;4.30;;;3.03;;
30617;SDS011;17384;51.214;9.202;2023-02-28T02:48:09;6.13;;;3.03;;
30617;SDS011;17384;51.214;9.202;2023-02-28T02:50:41;7.30;;;3.13;;
30617;SDS011;17384;51.214;9.202;2023-02-28T02:53:10;3.05;;;2.45;;
30617;SDS011;17384;51.214;9.202;2023-02-28T02:55:40;4.13;;;2.10;;
30617;SDS011;17384;51.214;9.202;2023-02-28T02:58:10;4.72;;;2.38;;
30617;SDS011;17384;51.214;9.202;2023-02-28T03:00:46;5.22;;;2.88;;
30617;SDS011;17384;51.214;9.202;2023-02-28T03:03:18;3.60;;;2.80;;
30617;SDS011;17384;51.214;9.202;2023-02-28T03:05:53;4.97;;;2.90;;
30617;SDS011;17384;51.214;9.202;2023-02-28T03:08:23;3.88;;;2.75;;
30617;SDS011;17384;51.214;9.202;2023-02-28T03:10:50;6.70;;;3.90;;
30617;SDS011;17384;51.214;9.202;2023-02-28T03:16:49;4.43;;;2.78;;
30617;SDS011;17384;51.214;9.202;2023-02-28T03:27:27;5.10;;;2.88;;
30617;SDS011;17384;51.214;9.202;2023-02-28T03:36:01;6.15;;;3.15;;
30617;SDS011;17384;51.214;9.202;2023-02-28T03:38:44;6.25;;;3.13;;
30617;SDS011;17384;51.214;9.202;2023-02-28T03:41:22;7.53;;;3.25;;
30617;SDS011;17384;51.214;9.202;2023-02-28T03:43:53;3.53;;;3.22;;
30617;SDS011;17384;51.214;9.202;2023-02-28T03:46:34;4.50;;;2.90;;
30617;SDS011;17384;51.214;9.202;2023-02-28T03:49:06;5.80;;;3.00;;
30617;SDS011;17384;51.214;9.202;2023-02-28T03:51:40;5.30;;;2.60;;
30617;SDS011;17384;51.214;9.202;2023-02-28T03:54:09;5.93;;;2.30;;
30617;SDS011;17384;51.214;9.202;2023-02-28T03:56:40;5.60;;;2.35;;
30617;SDS011;17384;51.214;9.202;2023-02-28T03:59:13;2.92;;;2.58;;
30617;SDS011;17384;51.214;9.202;2023-02-28T04:01:49;4.95;;;2.78;;
30617;SDS011;17384;51.214;9.202;2023-02-28T04:06:42;5.10;;;3.17;;
30617;SDS011;17384;51.214;9.202;2023-02-28T04:09:10;3.05;;;2.17;;
30617;SDS011;17384;51.214;9.202;2023-02-28T04:11:45;5.35;;;2.58;;
30617;SDS011;17384;51.214;9.202;2023-02-28T04:14:17;3.30;;;2.65;;
30617;SDS011;17384;51.214;9.202;2023-02-28T04:16:43;3.45;;;2.63;;
30617;SDS011;17384;51.214;9.202;2023-02-28T04:19:10;3.40;;;2.30;;
30617;SDS011;17384;51.214;9.202;2023-02-28T04:21:38;2.60;;;2.15;;
30617;SDS011;17384;51.214;9.202;2023-02-28T04:24:06;3.50;;;2.45;;
30617;SDS011;17384;51.214;9.202;2023-02-28T04:26:39;3.35;;;2.40;;
30617;SDS011;17384;51.214;9.202;2023-02-28T04:29:05;6.03;;;2.30;;
30617;SDS011;17384;51.214;9.202;2023-02-28T04:31:32;6.90;;;2.60;;
30617;SDS011;17384;51.214;9.202;2023-02-28T04:33:58;3.55;;;2.50;;
30617;SDS011;17384;51.214;9.202;2023-02-28T04:36:23;7.50;;;3.53;;
30617;SDS011;17384;51.214;9.202;2023-02-28T04:38:49;4.10;;;2.75;;
30617;SDS011;17384;51.214;9.202;2023-02-28T04:41:15;2.92;;;2.58;;
30617;SDS011;17384;51.214;9.202;2023-02-28T04:43:41;4.40;;;2.17;;
30617;SDS011;17384;51.214;9.202;2023-02-28T04:46:06;4.68;;;2.00;;
30617;SDS011;17384;51.214;9.202;2023-02-28T04:48:33;2.78;;;2.28;;
30617;SDS011;17384;51.214;9.202;2023-02-28T04:51:01;5.45;;;2.63;;
30617;SDS011;17384;51.214;9.202;2023-02-28T04:53:28;5.75;;;2.45;;
30617;SDS011;17384;51.214;9.202;2023-02-28T04:55:54;2.90;;;2.40;;
30617;SDS011;17384;51.214;9.202;2023-02-28T04:58:20;3.13;;;2.83;;
30617;SDS011;17384;51.214;9.202;2023-02-28T05:00:48;5.72;;;1.90;;
30617;SDS011;17384;51.214;9.202;2023-02-28T05:03:13;2.95;;;2.20;;
30617;SDS011;17384;51.214;9.202;2023-02-28T05:05:39;2.95;;;2.10;;
30617;SDS011;17384;51.214;9.202;2023-02-28T05:08:04;4.68;;;2.10;;
30617;SDS011;17384;51.214;9.202;2023-02-28T05:10:30;4.18;;;2.17;;
30617;SDS011;17384;51.214;9.202;2023-02-28T05:12:57;4.63;;;2.53;;
30617;SDS011;17384;51.214;9.202;2023-02-28T05:15:22;4.05;;;2.47;;
30617;SDS011;17384;51.214;9.202;2023-02-28T05:17:48;3.47;;;1.85;;
30617;SDS011;17384;51.214;9.202;2023-02-28T05:20:13;2.40;;;2.20;;
30617;SDS011;17384;51.214;9.202;2023-02-28T05:22:39;3.78;;;2.42;;
30617;SDS011;17384;51.214;9.202;2023-02-28T05:25:06;2.88;;;2.25;;
30617;SDS011;17384;51.214;9.202;2023-02-28T05:27:34;2.40;;;1.90;;
30617;SDS011;17384;51.214;9.202;2023-02-28T05:29:59;2.92;;;2.00;;
30617;SDS011;17384;51.214;9.202;2023-02-28T05:32:27;4.63;;;2.92;;
30617;SDS011;17384;51.214;9.202;2023-02-28T05:34:53;12.10;;;5.95;;
30617;SDS011;17384;51.214;9.202;2023-02-28T05:37:18;2.80;;;2.13;;
30617;SDS011;17384;51.214;9.202;2023-02-28T05:39:44;3.65;;;2.28;;
30617;SDS011;17384;51.214;9.202;2023-02-28T05:42:09;4.53;;;3.25;;
30617;SDS011;17384;51.214;9.202;2023-02-28T05:44:35;3.30;;;2.70;;
30617;SDS011;17384;51.214;9.202;2023-02-28T05:47:01;4.95;;;3.53;;
30617;SDS011;17384;51.214;9.202;2023-02-28T05:49:27;3.03;;;2.83;;
30617;SDS011;17384;51.214;9.202;2023-02-28T05:51:52;3.15;;;2.47;;
30617;SDS011;17384;51.214;9.202;2023-02-28T05:54:18;2.60;;;2.40;;
30617;SDS011;17384;51.214;9.202;2023-02-28T05:56:43;5.50;;;4.80;;
30617;SDS011;17384;51.214;9.202;2023-02-28T05:59:10;6.10;;;3.70;;
30617;SDS011;17384;51.214;9.202;2023-02-28T06:01:38;3.15;;;2.83;;
30617;SDS011;17384;51.214;9.202;2023-02-28T06:04:07;4.60;;;3.90;;
30617;SDS011;17384;51.214;9.202;2023-02-28T06:06:35;7.97;;;3.10;;
30617;SDS011;17384;51.214;9.202;2023-02-28T06:09:02;7.32;;;4.68;;
30617;SDS011;17384;51.214;9.202;2023-02-28T06:11:30;7.57;;;3.05;;
30617;SDS011;17384;51.214;9.202;2023-02-28T06:13:57;13.85;;;9.90;;
30617;SDS011;17384;51.214;9.202;2023-02-28T06:16:25;9.65;;;5.43;;
30617;SDS011;17384;51.214;9.202;2023-02-28T06:18:52;4.88;;;3.13;;
30617;SDS011;17384;51.214;9.202;2023-02-28T06:21:18;3.35;;;2.60;;
30617;SDS011;17384;51.214;9.202;2023-02-28T06:23:43;7.45;;;5.30;;
30617;SDS011;17384;51.214;9.202;2023-02-28T06:26:09;22.20;;;4.25;;
30617;SDS011;17384;51.214;9.202;2023-02-28T06:28:35;7.38;;;4.57;;
30617;SDS011;17384;51.214;9.202;2023-02-28T06:31:11;12.25;;;5.05;;
30617;SDS011;17384;51.214;9.202;2023-02-28T06:33:38;10.50;;;5.22;;
30617;SDS011;17384;51.214;9.202;2023-02-28T06:36:05;5.38;;;4.03;;
30617;SDS011;17384;51.214;9.202;2023-02-28T06:38:31;6.72;;;5.32;;
30617;SDS011;17384;51.214;9.202;2023-02-28T06:40:57;6.55;;;3.92;;
30617;SDS011;17384;51.214;9.202;2023-02-28T06:43:25;7.32;;;3.67;;
30617;SDS011;17384;51.214;9.202;2023-02-28T06:45:56;7.78;;;3.90;;
30617;SDS011;17384;51.214;9.202;2023-02-28T06:48:25;3.60;;;2.97;;
30617;SDS011;17384;51.214;9.202;2023-02-28T06:50:51;8.30;;;3.80;;
30617;SDS011;17384;51.214;9.202;2023-02-28T06:53:17;5.65;;;3.13;;
30617;SDS011;17384;51.214;9.202;2023-02-28T06:55:42;4.55;;;3.28;;
30617;SDS011;17384;51.214;9.202;2023-02-28T06:58:08;9.07;;;4.50;;
30617;SDS011;17384;51.214;9.202;2023-02-28T07:00:44;8.07;;;5.00;;
30617;SDS011;17384;51.214;9.202;2023-02-28T07:03:11;6.45;;;4.47;;
30617;SDS011;17384;51.214;9.202;2023-02-28T07:05:38;4.82;;;2.80;;
30617;SDS011;17384;51.214;9.202;2023-02-28T07:08:04;5.28;;;3.17;;
30617;SDS011;17384;51.214;9.202;2023-02-28T07:10:31;4.97;;;3.50;;
30617;SDS011;17384;51.214;9.202;2023-02-28T07:12:58;5.63;;;2.92;;
30617;SDS011;17384;51.214;9.202;2023-02-28T07:15:24;4.38;;;3.15;;
30617;SDS011;17384;51.214;9.202;2023-02-28T07:17:50;3.55;;;2.80;;
30617;SDS011;17384;51.214;9.202;2023-02-28T07:20:16;3.83;;;2.67;;
30617;SDS011;17384;51.214;9.202;2023-02-28T07:22:41;4.50;;;2.72;;
30617;SDS011;17384;51.214;9.202;2023-02-28T07:25:07;4.75;;;2.90;;
30617;SDS011;17384;51.214;9.202;2023-02-28T07:27:33;4.93;;;2.55;;
30617;SDS011;17384;51.214;9.202;2023-02-28T07:29:59;4.53;;;3.15;;
30617;SDS011;17384;51.214;9.202;2023-02-28T07:32:26;6.55;;;2.90;;
30617;SDS011;17384;51.214;9.202;2023-02-28T07:34:52;6.63;;;2.97;;
30617;SDS011;17384;51.214;9.202;2023-02-28T07:37:18;6.30;;;2.75;;
30617;SDS011;17384;51.214;9.202;2023-02-28T07:39:44;4.28;;;2.67;;
30617;SDS011;17384;51.214;9.202;2023-02-28T07:42:09;5.03;;;2.97;;
30617;SDS011;17384;51.214;9.202;2023-02-28T07:44:37;7.53;;;3.15;;
30617;SDS011;17384;51.214;9.202;2023-02-28T07:47:06;10.73;;;3.17;;
30617;SDS011;17384;51.214;9.202;2023-02-28T07:49:33;4.32;;;2.90;;
30617;SDS011;17384;51.214;9.202;2023-02-28T07:51:59;3.17;;;2.58;;
30617;SDS011;17384;51.214;9.202;2023-02-28T07:54:25;4.75;;;2.65;;
30617;SDS011;17384;51.214;9.202;2023-02-28T07:56:50;5.50;;;2.38;;
30617;SDS011;17384;51.214;9.202;2023-02-28T07:59:15;5.07;;;2.50;;
30617;SDS011;17384;51.214;9.202;2023-02-28T08:01:41;6.40;;;2.95;;
30617;SDS011;17384;51.214;9.202;2023-02-28T08:04:08;7.05;;;2.95;;
30617;SDS011;17384;51.214;9.202;2023-02-28T08:06:34;7.50;;;3.10;;
30617;SDS011;17384;51.214;9.202;2023-02-28T08:09:00;3.72;;;2.97;;
30617;SDS011;17384;51.214;9.202;2023-02-28T08:11:25;4.38;;;3.03;;
30617;SDS011;17384;51.214;9.202;2023-02-28T08:13:51;5.50;;;3.08;;
30617;SDS011;17384;51.214;9.202;2023-02-28T08:16:17;6.13;;;3.55;;
30617;SDS011;17384;51.214;9.202;2023-02-28T08:18:47;4.75;;;3.33;;
30617;SDS011;17384;51.214;9.202;2023-02-28T08:21:15;6.43;;;3.42;;
30617;SDS011;17384;51.214;9.202;2023-02-28T08:23:41;6.40;;;4.03;;
30617;SDS011;17384;51.214;9.202;2023-02-28T08:26:06;4.38;;;3.40;;
30617;SDS011;17384;51.214;9.202;2023-02-28T08:28:32;5.10;;;3.70;;
30617;SDS011;17384;51.214;9.202;2023-02-28T08:30:58;4.80;;;3.08;;
30617;SDS011;17384;51.214;9.202;2023-02-28T08:33:24;6.95;;;3.22;;
30617;SDS011;17384;51.214;9.202;2023-02-28T08:35:54;5.00;;;3.35;;
30617;SDS011;17384;51.214;9.202;2023-02-28T08:38:20;4.50;;;3.05;;
30617;SDS011;17384;51.214;9.202;2023-02-28T08:40:46;7.75;;;4.18;;
30617;SDS011;17384;51.214;9.202;2023-02-28T08:43:12;5.20;;;3.65;;
30617;SDS011;17384;51.214;9.202;2023-02-28T08:45:37;6.53;;;3.75;;
30617;SDS011;17384;51.214;9.202;2023-02-28T08:48:03;8.75;;;4.15;;
30617;SDS011;17384;51.214;9.202;2023-02-28T08:50:29;5.63;;;3.63;;
30617;SDS011;17384;51.214;9.202;2023-02-28T08:52:54;4.97;;;3.83;;
30617;SDS011;17384;51.214;9.202;2023-02-28T08:55:20;5.03;;;3.30;;
30617;SDS011;17384;51.214;9.202;2023-02-28T08:57:45;6.18;;;3.80;;
30617;SDS011;17384;51.214;9.202;2023-02-28T09:00:11;8.80;;;4.55;;
30617;SDS011;17384;51.214;9.202;2023-02-28T09:02:39;6.07;;;3.63;;
30617;SDS011;17384;51.214;9.202;2023-02-28T09:05:05;5.35;;;3.30;;
30617;SDS011;17384;51.214;9.202;2023-02-28T09:07:31;11.65;;;4.05;;
30617;SDS011;17384;51.214;9.202;2023-02-28T09:09:57;7.95;;;4.35;;
30617;SDS011;17384;51.214;9.202;2023-02-28T09:12:26;5.82;;;3.72;;
30617;SDS011;17384;51.214;9.202;2023-02-28T09:14:53;6.18;;;3.97;;
30617;SDS011;17384;51.214;9.202;2023-02-28T09:17:19;4.32;;;3.67;;
30617;SDS011;17384;51.214;9.202;2023-02-28T09:19:46;5.53;;;3.88;;
30617;SDS011;17384;51.214;9.202;2023-02-28T09:22:13;9.82;;;4.05;;
30617;SDS011;17384;51.214;9.202;2023-02-28T09:24:38;6.05;;;4.22;;
30617;SDS011;17384;51.214;9.202;2023-02-28T09:27:04;5.50;;;4.10;;
30617;SDS011;17384;51.214;9.202;2023-02-28T09:29:30;5.35;;;3.40;;
30617;SDS011;17384;51.214;9.202;2023-02-28T09:31:57;6.45;;;3.70;;
30617;SDS011;17384;51.214;9.202;2023-02-28T09:34:26;3.90;;;3.20;;
30617;SDS011;17384;51.214;9.202;2023-02-28T09:36:52;4.47;;;3.80;;
30617;SDS011;17384;51.214;9.202;2023-02-28T09:39:23;7.78;;;3.78;;
30617;SDS011;17384;51.214;9.202;2023-02-28T09:41:52;7.38;;;3.92;;
30617;SDS011;17384;51.214;9.202;2023-02-28T09:44:37;4.70;;;3.20;;
30617;SDS011;17384;51.214;9.202;2023-02-28T09:48:09;6.68;;;3.65;;
30617;SDS011;17384;51.214;9.202;2023-02-28T09:50:17;7.72;;;3.85;;
30617;SDS011;17384;51.214;9.202;2023-02-28T09:53:19;5.18;;;3.80;;
30617;SDS011;17384;51.214;9.202;2023-02-28T09:55:53;7.20;;;3.70;;
30617;SDS011;17384;51.214;9.202;2023-02-28T09:58:26;6.53;;;3.83;;
30617;SDS011;17384;51.214;9.202;2023-02-28T10:01:03;5.95;;;4.07;;
30617;SDS011;17384;51.214;9.202;2023-02-28T10:03:42;7.00;;;4.05;;
30617;SDS011;17384;51.214;9.202;2023-02-28T10:06:14;8.68;;;3.80;;
30617;SDS011;17384;51.214;9.202;2023-02-28T10:11:27;5.80;;;3.50;;
30617;SDS011;17384;51.214;9.202;2023-02-28T10:14:01;7.75;;;4.90;;
30617;SDS011;17384;51.214;9.202;2023-02-28T10:18:59;10.85;;;5.45;;
30617;SDS011;17384;51.214;9.202;2023-02-28T10:21:31;16.38;;;4.65;;
30617;SDS011;17384;51.214;9.202;2023-02-28T10:24:03;4.30;;;3.53;;
30617;SDS011;17384;51.214;9.202;2023-02-28T10:26:39;7.28;;;3.67;;
30617;SDS011;17384;51.214;9.202;2023-02-28T10:29:10;6.45;;;3.20;;
30617;SDS011;17384;51.214;9.202;2023-02-28T10:31:36;6.20;;;3.80;;
30617;SDS011;17384;51.214;9.202;2023-02-28T10:34:03;4.90;;;3.72;;
30617;SDS011;17384;51.214;9.202;2023-02-28T10:36:29;4.93;;;3.78;;
30617;SDS011;17384;51.214;9.202;2023-02-28T10:38:54;5.05;;;3.75;;
30617;SDS011;17384;51.214;9.202;2023-02-28T10:41:27;9.05;;;4.00;;
30617;SDS011;17384;51.214;9.202;2023-02-28T10:44:22;5.22;;;4.18;;
30617;SDS011;17384;51.214;9.202;2023-02-28T10:46:46;6.85;;;4.15;;
30617;SDS011;17384;51.214;9.202;2023-02-28T10:49:15;6.60;;;4.38;;
30617;SDS011;17384;51.214;9.202;2023-02-28T10:51:47;6.45;;;3.60;;
30617;SDS011;17384;51.214;9.202;2023-02-28T10:54:38;5.75;;;4.13;;
30617;SDS011;17384;51.214;9.202;2023-02-28T10:59:42;8.75;;;4.70;;
30617;SDS011;17384;51.214;9.202;2023-02-28T11:05:02;9.37;;;4.07;;
30617;SDS011;17384;51.214;9.202;2023-02-28T11:07:51;6.28;;;3.55;;
30617;SDS011;17384;51.214;9.202;2023-02-28T11:10:19;6.85;;;3.80;;
30617;SDS011;17384;51.214;9.202;2023-02-28T11:12:48;5.18;;;4.43;;
30617;SDS011;17384;51.214;9.202;2023-02-28T11:17:52;5.40;;;3.90;;
30617;SDS011;17384;51.214;9.202;2023-02-28T11:20:48;6.57;;;4.30;;
30617;SDS011;17384;51.214;9.202;2023-02-28T11:23:16;13.00;;;4.18;;
30617;SDS011;17384;51.214;9.202;2023-02-28T11:25:47;7.25;;;4.22;;
30617;SDS011;17384;51.214;9.202;2023-02-28T11:28:29;6.87;;;4.67;;
30617;SDS011;17384;51.214;9.202;2023-02-28T11:33:37;9.48;;;5.10;;
30617;SDS011;17384;51.214;9.202;2023-02-28T11:36:14;9.27;;;4.43;;
30617;SDS011;17384;51.214;9.202;2023-02-28T11:38:43;8.00;;;4.15;;
30617;SDS011;17384;51.214;9.202;2023-02-28T11:46:44;8.70;;;4.45;;
30617;SDS011;17384;51.214;9.202;2023-02-28T11:49:34;10.43;;;4.88;;
30617;SDS011;17384;51.214;9.202;2023-02-28T12:00:08;8.57;;;5.50;;
30617;SDS011;17384;51.214;9.202;2023-02-28T12:05:49;7.30;;;4.70;;
30617;SDS011;17384;51.214;9.202;2023-02-28T12:19:37;10.57;;;4.70;;
30617;SDS011;17384;51.214;9.202;2023-02-28T12:27:20;8.10;;;5.22;;
30617;SDS011;17384;51.214;9.202;2023-02-28T12:29:54;5.50;;;4.30;;
30617;SDS011;17384;51.214;9.202;2023-02-28T12:34:54;7.22;;;4.78;;
30617;SDS011;17384;51.214;9.202;2023-02-28T12:37:35;9.18;;;5.32;;
30617;SDS011;17384;51.214;9.202;2023-02-28T12:40:06;10.00;;;4.90;;
30617;SDS011;17384;51.214;9.202;2023-02-28T12:42:42;7.80;;;5.22;;
30617;SDS011;17384;51.214;9.202;2023-02-28T12:45:13;10.45;;;4.93;;
30617;SDS011;17384;51.214;9.202;2023-02-28T12:47:45;5.97;;;4.60;;
30617;SDS011;17384;51.214;9.202;2023-02-28T12:50:15;5.75;;;4.45;;
30617;SDS011;17384;51.214;9.202;2023-02-28T12:55:33;7.45;;;4.45;;
30617;SDS011;17384;51.214;9.202;2023-02-28T13:09:18;6.05;;;4.65;;
30617;SDS011;17384;51.214;9.202;2023-02-28T13:11:45;10.85;;;5.15;;
30617;SDS011;17384;51.214;9.202;2023-02-28T13:17:02;5.83;;;4.50;;
30617;SDS011;17384;51.214;9.202;2023-02-28T13:19:34;7.72;;;4.95;;
30617;SDS011;17384;51.214;9.202;2023-02-28T13:22:02;7.72;;;4.75;;
30617;SDS011;17384;51.214;9.202;2023-02-28T13:24:46;12.27;;;5.55;;
30617;SDS011;17384;51.214;9.202;2023-02-28T13:27:32;8.73;;;4.95;;
30617;SDS011;17384;51.214;9.202;2023-02-28T13:29:59;13.57;;;6.97;;
30617;SDS011;17384;51.214;9.202;2023-02-28T13:39:55;7.95;;;5.22;;
30617;SDS011;17384;51.214;9.202;2023-02-28T13:50:20;9.10;;;5.20;;
30617;SDS011;17384;51.214;9.202;2023-02-28T14:11:54;7.47;;;4.80;;
30617;SDS011;17384;51.214;9.202;2023-02-28T14:17:05;7.57;;;4.95;;
30617;SDS011;17384;51.214;9.202;2023-02-28T14:27:21;7.30;;;5.15;;
30617;SDS011;17384;51.214;9.202;2023-02-28T14:35:55;8.40;;;4.65;;
30617;SDS011;17384;51.214;9.202;2023-02-28T14:38:36;5.90;;;4.30;;
30617;SDS011;17384;51.214;9.202;2023-02-28T14:41:52;9.18;;;5.32;;
30617;SDS011;17384;51.214;9.202;2023-02-28T14:46:40;6.80;;;4.82;;
30617;SDS011;17384;51.214;9.202;2023-02-28T14:49:12;10.05;;;4.88;;
30617;SDS011;17384;51.214;9.202;2023-02-28T14:54:31;11.23;;;5.88;;
30617;SDS011;17384;51.214;9.202;2023-02-28T14:56:57;9.48;;;5.28;;
30617;SDS011;17384;51.214;9.202;2023-02-28T14:59:27;9.60;;;5.70;;
30617;SDS011;17384;51.214;9.202;2023-02-28T15:04:43;10.43;;;6.28;;
30617;SDS011;17384;51.214;9.202;2023-02-28T15:07:17;13.48;;;6.30;;
30617;SDS011;17384;51.214;9.202;2023-02-28T15:09:43;7.30;;;5.30;;
30617;SDS011;17384;51.214;9.202;2023-02-28T15:12:10;9.00;;;5.15;;
30617;SDS011;17384;51.214;9.202;2023-02-28T15:14:41;7.07;;;5.28;;
30617;SDS011;17384;51.214;9.202;2023-02-28T15:17:11;7.55;;;5.07;;
30617;SDS011;17384;51.214;9.202;2023-02-28T15:19:47;9.82;;;4.70;;
30617;SDS011;17384;51.214;9.202;2023-02-28T15:22:16;6.78;;;4.65;;
30617;SDS011;17384;51.214;9.202;2023-02-28T15:24:49;8.75;;;5.40;;
30617;SDS011;17384;51.214;9.202;2023-02-28T15:27:25;9.70;;;6.43;;
30617;SDS011;17384;51.214;9.202;2023-02-28T15:29:56;8.70;;;6.00;;
30617;SDS011;17384;51.214;9.202;2023-02-28T15:32:26;9.48;;;5.65;;
30617;SDS011;17384;51.214;9.202;2023-02-28T15:34:52;10.23;;;5.70;;
30617;SDS011;17384;51.214;9.202;2023-02-28T15:40:33;8.25;;;5.20;;
30617;SDS011;17384;51.214;9.202;2023-02-28T15:43:13;8.52;;;5.53;;
30617;SDS011;17384;51.214;9.202;2023-02-28T15:48:59;9.73;;;5.60;;
30617;SDS011;17384;51.214;9.202;2023-02-28T15:51:32;11.18;;;6.05;;
30617;SDS011;17384;51.214;9.202;2023-02-28T15:54:04;12.02;;;5.95;;
30617;SDS011;17384;51.214;9.202;2023-02-28T15:56:37;9.55;;;5.20;;
30617;SDS011;17384;51.214;9.202;2023-02-28T15:59:07;9.27;;;5.77;;
30617;SDS011;17384;51.214;9.202;2023-02-28T16:01:44;14.48;;;9.95;;
30617;SDS011;17384;51.214;9.202;2023-02-28T16:04:17;15.30;;;10.55;;
30617;SDS011;17384;51.214;9.202;2023-02-28T16:06:45;11.73;;;6.45;;
30617;SDS011;17384;51.214;9.202;2023-02-28T16:09:13;14.30;;;7.95;;
30617;SDS011;17384;51.214;9.202;2023-02-28T16:11:45;12.73;;;8.18;;
30617;SDS011;17384;51.214;9.202;2023-02-28T16:14:15;11.98;;;7.18;;
30617;SDS011;17384;51.214;9.202;2023-02-28T16:16:46;14.43;;;10.25;;
30617;SDS011;17384;51.214;9.202;2023-02-28T16:19:13;25.25;;;20.60;;
30617;SDS011;17384;51.214;9.202;2023-02-28T16:21:39;19.70;;;14.80;;
30617;SDS011;17384;51.214;9.202;2023-02-28T16:24:05;15.30;;;7.13;;
30617;SDS011;17384;51.214;9.202;2023-02-28T16:26:31;10.90;;;6.35;;
30617;SDS011;17384;51.214;9.202;2023-02-28T16:28:59;11.50;;;6.15;;
30617;SDS011;17384;51.214;9.202;2023-02-28T16:31:26;7.28;;;5.43;;
30617;SDS011;17384;51.214;9.202;2023-02-28T16:33:52;18.75;;;7.63;;
30617;SDS011;17384;51.214;9.202;2023-02-28T16:36:19;11.70;;;7.25;;
30617;SDS011;17384;51.214;9.202;2023-02-28T16:38:46;10.05;;;6.95;;
30617;SDS011;17384;51.214;9.202;2023-02-28T16:41:12;8.80;;;6.18;;
30617;SDS011;17384;51.214;9.202;2023-02-28T16:43:44;16.85;;;8.23;;
30617;SDS011;17384;51.214;9.202;2023-02-28T16:46:14;15.25;;;10.77;;
30617;SDS011;17384;51.214;9.202;2023-02-28T16:48:40;13.95;;;8.77;;
30617;SDS011;17384;51.214;9.202;2023-02-28T16:51:06;16.85;;;10.40;;
30617;SDS011;17384;51.214;9.202;2023-02-28T16:53:36;21.55;;;9.45;;
30617;SDS011;17384;51.214;9.202;2023-02-28T16:56:02;14.85;;;8.70;;
30617;SDS011;17384;51.214;9.202;2023-02-28T16:58:27;11.60;;;6.97;;
30617;SDS011;17384;51.214;9.202;2023-02-28T17:00:53;12.90;;;6.78;;
30617;SDS011;17384;51.214;9.202;2023-02-28T17:03:22;9.00;;;6.28;;
30617;SDS011;17384;51.214;9.202;2023-02-28T17:05:49;11.00;;;6.70;;
30617;SDS011;17384;51.214;9.202;2023-02-28T17:08:15;9.52;;;6.82;;
30617;SDS011;17384;51.214;9.202;2023-02-28T17:10:41;12.60;;;7.32;;
30617;SDS011;17384;51.214;9.202;2023-02-28T17:13:07;11.65;;;7.22;;
30617;SDS011;17384;51.214;9.202;2023-02-28T17:15:33;12.20;;;7.10;;
30617;SDS011;17384;51.214;9.202;2023-02-28T17:17:59;15.85;;;8.05;;
30617;SDS011;17384;51.214;9.202;2023-02-28T17:20:25;12.07;;;7.32;;
30617;SDS011;17384;51.214;9.202;2023-02-28T17:22:51;18.35;;;7.30;;
30617;SDS011;17384;51.214;9.202;2023-02-28T17:25:18;11.85;;;7.35;;
30617;SDS011;17384;51.214;9.202;2023-02-28T17:27:44;12.32;;;7.97;;
30617;SDS011;17384;51.214;9.202;2023-02-28T17:30:20;15.73;;;7.75;;
30617;SDS011;17384;51.214;9.202;2023-02-28T17:32:48;16.73;;;8.82;;
30617;SDS011;17384;51.214;9.202;2023-02-28T17:35:13;13.63;;;7.28;;
30617;SDS011;17384;51.214;9.202;2023-02-28T17:37:39;8.52;;;6.93;;
30617;SDS011;17384;51.214;9.202;2023-02-28T17:40:05;12.10;;;7.45;;
30617;SDS011;17384;51.214;9.202;2023-02-28T17:42:31;17.60;;;8.45;;
30617;SDS011;17384;51.214;9.202;2023-02-28T17:44:57;13.40;;;7.68;;
30617;SDS011;17384;51.214;9.202;2023-02-28T17:47:22;11.35;;;7.30;;
30617;SDS011;17384;51.214;9.202;2023-02-28T17:49:48;11.63;;;8.10;;
30617;SDS011;17384;51.214;9.202;2023-02-28T17:52:13;15.77;;;8.50;;